sensor_id;sensor_type;location;lat;lon;timestamp;P1;durP1;ratioP1;P2;durP2;ratioP2
21339;SDS011;10828;47.064;15.422;2023-07-02T15:02:06;5.57;;;2.97;;
21339;SDS011;10828;47.064;15.422;2023-07-02T15:04:33;5.40;;;2.90;;
21339;SDS011;10828;47.064;15.422;2023-07-02T15:07:01;4.32;;;2.60;;
21339;SDS011;10828;47.064;15.422;2023-07-02T15:09:55;4.60;;;2.80;;
21339;SDS011;10828;47.064;15.422;2023-07-02T15:12:22;4.97;;;2.27;;
21339;SDS011;10828;47.064;15.422;2023-07-02T15:14:52;5.22;;;2.83;;
21339;SDS011;10828;47.064;15.422;2023-07-02T15:17:20;4.70;;;2.53;;
21339;SDS011;10828;47.064;15.422;2023-07-02T15:19:45;4.70;;;2.67;;
21339;SDS011;10828;47.064;15.422;2023-07-02T15:22:15;5.27;;;3.07;;
21339;SDS011;10828;47.064;15.422;2023-07-02T15:24:50;4.90;;;2.83;;
21339;SDS011;10828;47.064;15.422;2023-07-02T15:27:19;5.33;;;2.80;;
21339;SDS011;10828;47.064;15.422;2023-07-02T15:29:50;5.23;;;2.67;;
21339;SDS011;10828;47.064;15.422;2023-07-02T15:32:20;5.43;;;2.97;;
21339;SDS011;10828;47.064;15.422;2023-07-02T15:34:52;5.43;;;2.72;;
21339;SDS011;10828;47.064;15.422;2023-07-02T15:37:21;5.53;;;3.00;;
21339;SDS011;10828;47.064;15.422;2023-07-02T15:40:11;4.93;;;2.70;;
21339;SDS011;10828;47.064;15.422;2023-07-02T15:42:39;6.47;;;3.03;;
21339;SDS011;10828;47.064;15.422;2023-07-02T15:45:05;8.80;;;3.03;;
21339;SDS011;10828;47.064;15.422;2023-07-02T15:47:33;5.27;;;2.80;;
21339;SDS011;10828;47.064;15.422;2023-07-02T15:50:03;4.47;;;2.53;;
21339;SDS011;10828;47.064;15.422;2023-07-02T15:52:29;6.30;;;3.07;;
21339;SDS011;10828;47.064;15.422;2023-07-02T15:55:05;6.28;;;3.35;;
21339;SDS011;10828;47.064;15.422;2023-07-02T15:57:36;5.53;;;2.70;;
21339;SDS011;10828;47.064;15.422;2023-07-02T16:00:04;8.63;;;2.73;;
21339;SDS011;10828;47.064;15.422;2023-07-02T16:02:31;6.57;;;3.20;;
21339;SDS011;10828;47.064;15.422;2023-07-02T16:05:10;7.13;;;3.10;;
21339;SDS011;10828;47.064;15.422;2023-07-02T16:07:39;4.90;;;2.40;;
21339;SDS011;10828;47.064;15.422;2023-07-02T16:10:08;10.37;;;2.90;;
21339;SDS011;10828;47.064;15.422;2023-07-02T16:12:38;5.03;;;2.60;;
21339;SDS011;10828;47.064;15.422;2023-07-02T16:17:35;9.53;;;2.70;;
21339;SDS011;10828;47.064;15.422;2023-07-02T16:20:01;5.43;;;2.93;;
21339;SDS011;10828;47.064;15.422;2023-07-02T16:22:30;6.90;;;2.80;;
21339;SDS011;10828;47.064;15.422;2023-07-02T16:24:57;7.80;;;2.73;;
21339;SDS011;10828;47.064;15.422;2023-07-02T16:27:23;11.93;;;3.47;;
21339;SDS011;10828;47.064;15.422;2023-07-02T16:29:49;5.07;;;2.83;;
21339;SDS011;10828;47.064;15.422;2023-07-02T16:32:16;6.23;;;3.20;;
21339;SDS011;10828;47.064;15.422;2023-07-02T16:34:46;5.27;;;3.07;;
21339;SDS011;10828;47.064;15.422;2023-07-02T16:37:13;6.83;;;2.73;;
21339;SDS011;10828;47.064;15.422;2023-07-02T16:39:40;5.90;;;3.00;;
21339;SDS011;10828;47.064;15.422;2023-07-02T16:42:06;4.57;;;2.60;;
21339;SDS011;10828;47.064;15.422;2023-07-02T16:44:34;5.10;;;2.80;;
21339;SDS011;10828;47.064;15.422;2023-07-02T16:47:03;8.77;;;3.00;;
21339;SDS011;10828;47.064;15.422;2023-07-02T16:49:30;5.03;;;2.30;;
21339;SDS011;10828;47.064;15.422;2023-07-02T16:52:04;6.43;;;2.60;;
21339;SDS011;10828;47.064;15.422;2023-07-02T16:54:32;3.67;;;2.20;;
21339;SDS011;10828;47.064;15.422;2023-07-02T16:57:01;5.47;;;2.53;;
21339;SDS011;10828;47.064;15.422;2023-07-02T16:59:29;4.83;;;2.50;;
21339;SDS011;10828;47.064;15.422;2023-07-02T17:02:11;6.63;;;2.60;;
21339;SDS011;10828;47.064;15.422;2023-07-02T17:04:50;4.40;;;2.43;;
21339;SDS011;10828;47.064;15.422;2023-07-02T17:07:21;4.93;;;2.53;;
21339;SDS011;10828;47.064;15.422;2023-07-02T17:09:50;4.17;;;2.47;;
21339;SDS011;10828;47.064;15.422;2023-07-02T17:12:18;4.63;;;2.50;;
21339;SDS011;10828;47.064;15.422;2023-07-02T17:14:47;4.97;;;2.43;;
21339;SDS011;10828;47.064;15.422;2023-07-02T17:17:16;5.10;;;2.50;;
21339;SDS011;10828;47.064;15.422;2023-07-02T17:19:56;4.20;;;2.13;;
21339;SDS011;10828;47.064;15.422;2023-07-02T17:22:31;4.27;;;2.30;;
21339;SDS011;10828;47.064;15.422;2023-07-02T17:24:58;5.40;;;2.17;;
21339;SDS011;10828;47.064;15.422;2023-07-02T17:27:28;4.63;;;2.13;;
21339;SDS011;10828;47.064;15.422;2023-07-02T17:30:05;4.80;;;2.40;;
21339;SDS011;10828;47.064;15.422;2023-07-02T17:32:33;4.20;;;2.27;;
21339;SDS011;10828;47.064;15.422;2023-07-02T17:35:00;4.70;;;2.37;;
21339;SDS011;10828;47.064;15.422;2023-07-02T17:37:35;3.57;;;1.90;;
21339;SDS011;10828;47.064;15.422;2023-07-02T17:40:02;5.07;;;2.70;;
21339;SDS011;10828;47.064;15.422;2023-07-02T17:42:31;4.83;;;2.47;;
21339;SDS011;10828;47.064;15.422;2023-07-02T17:45:00;4.03;;;2.03;;
21339;SDS011;10828;47.064;15.422;2023-07-02T17:47:33;5.83;;;2.40;;
21339;SDS011;10828;47.064;15.422;2023-07-02T17:50:03;3.87;;;2.30;;
21339;SDS011;10828;47.064;15.422;2023-07-02T17:52:36;7.67;;;2.73;;
21339;SDS011;10828;47.064;15.422;2023-07-02T17:55:05;5.50;;;2.87;;
21339;SDS011;10828;47.064;15.422;2023-07-02T17:57:40;5.13;;;2.67;;
21339;SDS011;10828;47.064;15.422;2023-07-02T18:00:07;5.17;;;2.70;;
21339;SDS011;10828;47.064;15.422;2023-07-02T18:02:34;5.33;;;2.47;;
21339;SDS011;10828;47.064;15.422;2023-07-02T18:05:05;4.97;;;2.30;;
21339;SDS011;10828;47.064;15.422;2023-07-02T18:07:34;4.83;;;2.20;;
21339;SDS011;10828;47.064;15.422;2023-07-02T18:10:05;5.10;;;2.50;;
21339;SDS011;10828;47.064;15.422;2023-07-02T18:12:40;4.30;;;2.53;;
21339;SDS011;10828;47.064;15.422;2023-07-02T18:15:07;5.47;;;2.60;;
21339;SDS011;10828;47.064;15.422;2023-07-02T18:17:37;5.23;;;2.67;;
21339;SDS011;10828;47.064;15.422;2023-07-02T18:20:06;4.63;;;2.47;;
21339;SDS011;10828;47.064;15.422;2023-07-02T18:22:36;5.90;;;2.60;;
21339;SDS011;10828;47.064;15.422;2023-07-02T18:25:02;4.53;;;2.60;;
21339;SDS011;10828;47.064;15.422;2023-07-02T18:27:29;4.23;;;2.40;;
21339;SDS011;10828;47.064;15.422;2023-07-02T18:29:56;4.90;;;2.10;;
21339;SDS011;10828;47.064;15.422;2023-07-02T18:32:24;6.67;;;2.50;;
21339;SDS011;10828;47.064;15.422;2023-07-02T18:35:13;7.20;;;2.90;;
21339;SDS011;10828;47.064;15.422;2023-07-02T18:37:51;9.27;;;2.97;;
21339;SDS011;10828;47.064;15.422;2023-07-02T18:40:20;9.00;;;2.60;;
21339;SDS011;10828;47.064;15.422;2023-07-02T18:42:49;7.30;;;2.80;;
21339;SDS011;10828;47.064;15.422;2023-07-02T18:45:18;6.83;;;2.23;;
21339;SDS011;10828;47.064;15.422;2023-07-02T18:47:48;4.57;;;2.70;;
21339;SDS011;10828;47.064;15.422;2023-07-02T18:50:18;4.63;;;2.37;;
21339;SDS011;10828;47.064;15.422;2023-07-02T18:52:59;4.73;;;2.50;;
21339;SDS011;10828;47.064;15.422;2023-07-02T18:55:27;4.50;;;2.27;;
21339;SDS011;10828;47.064;15.422;2023-07-02T18:58:06;4.63;;;2.40;;
21339;SDS011;10828;47.064;15.422;2023-07-02T19:00:56;3.93;;;2.37;;
21339;SDS011;10828;47.064;15.422;2023-07-02T19:03:23;5.10;;;2.60;;
21339;SDS011;10828;47.064;15.422;2023-07-02T19:05:52;5.60;;;2.70;;
21339;SDS011;10828;47.064;15.422;2023-07-02T19:08:19;4.13;;;2.20;;
21339;SDS011;10828;47.064;15.422;2023-07-02T19:10:57;5.50;;;2.63;;
21339;SDS011;10828;47.064;15.422;2023-07-02T19:14:05;5.97;;;2.73;;
21339;SDS011;10828;47.064;15.422;2023-07-02T19:16:31;5.67;;;2.70;;
21339;SDS011;10828;47.064;15.422;2023-07-02T19:19:00;6.77;;;3.07;;
21339;SDS011;10828;47.064;15.422;2023-07-02T19:21:26;5.33;;;2.77;;
21339;SDS011;10828;47.064;15.422;2023-07-02T19:23:52;7.30;;;3.30;;
21339;SDS011;10828;47.064;15.422;2023-07-02T19:26:29;5.70;;;3.13;;
21339;SDS011;10828;47.064;15.422;2023-07-02T19:28:58;6.20;;;3.03;;
21339;SDS011;10828;47.064;15.422;2023-07-02T19:34:04;6.43;;;3.30;;
21339;SDS011;10828;47.064;15.422;2023-07-02T19:36:31;6.70;;;3.45;;
21339;SDS011;10828;47.064;15.422;2023-07-02T19:39:20;6.03;;;3.10;;
21339;SDS011;10828;47.064;15.422;2023-07-02T19:44:21;6.23;;;3.40;;
21339;SDS011;10828;47.064;15.422;2023-07-02T19:46:47;8.33;;;3.27;;
21339;SDS011;10828;47.064;15.422;2023-07-02T19:49:15;6.50;;;2.95;;
21339;SDS011;10828;47.064;15.422;2023-07-02T19:51:42;6.10;;;3.33;;
21339;SDS011;10828;47.064;15.422;2023-07-02T19:54:19;6.60;;;3.13;;
21339;SDS011;10828;47.064;15.422;2023-07-02T19:56:50;5.87;;;3.03;;
21339;SDS011;10828;47.064;15.422;2023-07-02T19:59:22;8.70;;;3.10;;
21339;SDS011;10828;47.064;15.422;2023-07-02T20:01:52;7.43;;;3.60;;
21339;SDS011;10828;47.064;15.422;2023-07-02T20:04:21;6.87;;;3.90;;
21339;SDS011;10828;47.064;15.422;2023-07-02T20:06:51;9.20;;;3.67;;
21339;SDS011;10828;47.064;15.422;2023-07-02T20:09:17;7.03;;;3.53;;
21339;SDS011;10828;47.064;15.422;2023-07-02T20:11:46;6.10;;;3.70;;
21339;SDS011;10828;47.064;15.422;2023-07-02T20:14:13;7.03;;;3.33;;
21339;SDS011;10828;47.064;15.422;2023-07-02T20:16:48;6.90;;;3.47;;
21339;SDS011;10828;47.064;15.422;2023-07-02T20:19:46;6.40;;;3.63;;
21339;SDS011;10828;47.064;15.422;2023-07-02T20:22:17;8.43;;;3.57;;
21339;SDS011;10828;47.064;15.422;2023-07-02T20:24:44;6.33;;;3.50;;
21339;SDS011;10828;47.064;15.422;2023-07-02T20:27:12;12.03;;;3.63;;
21339;SDS011;10828;47.064;15.422;2023-07-02T20:29:45;6.80;;;3.50;;
21339;SDS011;10828;47.064;15.422;2023-07-02T20:32:18;8.13;;;3.63;;
21339;SDS011;10828;47.064;15.422;2023-07-02T20:34:45;7.20;;;3.40;;
21339;SDS011;10828;47.064;15.422;2023-07-02T20:37:18;7.47;;;3.60;;
21339;SDS011;10828;47.064;15.422;2023-07-02T20:39:49;8.13;;;3.73;;
21339;SDS011;10828;47.064;15.422;2023-07-02T20:42:21;10.93;;;3.57;;
21339;SDS011;10828;47.064;15.422;2023-07-02T20:44:49;7.83;;;3.90;;
21339;SDS011;10828;47.064;15.422;2023-07-02T20:47:28;8.93;;;3.63;;
21339;SDS011;10828;47.064;15.422;2023-07-02T20:49:56;10.33;;;4.10;;
21339;SDS011;10828;47.064;15.422;2023-07-02T20:52:26;8.33;;;3.80;;
21339;SDS011;10828;47.064;15.422;2023-07-02T20:55:01;5.40;;;3.23;;
21339;SDS011;10828;47.064;15.422;2023-07-02T20:57:39;7.20;;;4.10;;
21339;SDS011;10828;47.064;15.422;2023-07-02T21:00:06;8.83;;;3.73;;
21339;SDS011;10828;47.064;15.422;2023-07-02T21:02:40;9.03;;;3.50;;
21339;SDS011;10828;47.064;15.422;2023-07-02T21:05:10;7.17;;;3.20;;
21339;SDS011;10828;47.064;15.422;2023-07-02T21:07:37;7.20;;;3.43;;
21339;SDS011;10828;47.064;15.422;2023-07-02T21:10:03;7.87;;;3.47;;
21339;SDS011;10828;47.064;15.422;2023-07-02T21:12:32;7.20;;;3.47;;
21339;SDS011;10828;47.064;15.422;2023-07-02T21:14:59;8.47;;;3.10;;
21339;SDS011;10828;47.064;15.422;2023-07-02T21:17:25;5.57;;;3.17;;
21339;SDS011;10828;47.064;15.422;2023-07-02T21:19:51;5.60;;;3.20;;
21339;SDS011;10828;47.064;15.422;2023-07-02T21:22:18;6.97;;;3.03;;
21339;SDS011;10828;47.064;15.422;2023-07-02T21:24:48;6.17;;;3.03;;
21339;SDS011;10828;47.064;15.422;2023-07-02T21:27:15;5.67;;;3.07;;
21339;SDS011;10828;47.064;15.422;2023-07-02T21:29:42;5.03;;;2.90;;
21339;SDS011;10828;47.064;15.422;2023-07-02T21:32:07;6.03;;;3.00;;
21339;SDS011;10828;47.064;15.422;2023-07-02T21:34:34;8.80;;;3.30;;
21339;SDS011;10828;47.064;15.422;2023-07-02T21:37:01;6.67;;;3.17;;
21339;SDS011;10828;47.064;15.422;2023-07-02T21:39:28;7.80;;;3.60;;
21339;SDS011;10828;47.064;15.422;2023-07-02T21:41:54;8.33;;;2.83;;
21339;SDS011;10828;47.064;15.422;2023-07-02T21:44:26;6.40;;;2.73;;
21339;SDS011;10828;47.064;15.422;2023-07-02T21:46:58;7.67;;;3.37;;
21339;SDS011;10828;47.064;15.422;2023-07-02T21:49:25;7.47;;;3.03;;
21339;SDS011;10828;47.064;15.422;2023-07-02T21:54:31;4.87;;;2.50;;
21339;SDS011;10828;47.064;15.422;2023-07-02T21:56:56;6.10;;;2.70;;
21339;SDS011;10828;47.064;15.422;2023-07-02T21:59:23;10.67;;;3.00;;
21339;SDS011;10828;47.064;15.422;2023-07-02T22:01:55;6.37;;;2.97;;
21339;SDS011;10828;47.064;15.422;2023-07-02T22:04:23;5.07;;;2.60;;
21339;SDS011;10828;47.064;15.422;2023-07-02T22:06:58;4.87;;;2.53;;
21339;SDS011;10828;47.064;15.422;2023-07-02T22:09:24;6.30;;;2.93;;
21339;SDS011;10828;47.064;15.422;2023-07-02T22:11:52;8.30;;;3.10;;
21339;SDS011;10828;47.064;15.422;2023-07-02T22:14:18;4.53;;;2.63;;
21339;SDS011;10828;47.064;15.422;2023-07-02T22:16:43;7.73;;;3.40;;
21339;SDS011;10828;47.064;15.422;2023-07-02T22:19:12;5.87;;;2.93;;
21339;SDS011;10828;47.064;15.422;2023-07-02T22:21:38;5.60;;;2.43;;
21339;SDS011;10828;47.064;15.422;2023-07-02T22:26:40;7.67;;;2.80;;
21339;SDS011;10828;47.064;15.422;2023-07-02T22:29:06;5.20;;;2.80;;
21339;SDS011;10828;47.064;15.422;2023-07-02T22:31:33;7.60;;;2.60;;
21339;SDS011;10828;47.064;15.422;2023-07-02T22:34:03;9.33;;;3.00;;
21339;SDS011;10828;47.064;15.422;2023-07-02T22:36:30;4.90;;;2.50;;
21339;SDS011;10828;47.064;15.422;2023-07-02T22:38:56;5.73;;;2.47;;
21339;SDS011;10828;47.064;15.422;2023-07-02T22:41:24;5.40;;;2.30;;
21339;SDS011;10828;47.064;15.422;2023-07-02T22:43:55;4.80;;;2.40;;
21339;SDS011;10828;47.064;15.422;2023-07-02T22:46:22;5.30;;;2.77;;
21339;SDS011;10828;47.064;15.422;2023-07-02T22:48:48;7.77;;;2.60;;
21339;SDS011;10828;47.064;15.422;2023-07-02T22:51:14;4.53;;;2.40;;
21339;SDS011;10828;47.064;15.422;2023-07-02T22:53:52;8.67;;;2.70;;
21339;SDS011;10828;47.064;15.422;2023-07-02T22:56:19;8.20;;;2.40;;
21339;SDS011;10828;47.064;15.422;2023-07-02T22:58:46;8.17;;;2.50;;
21339;SDS011;10828;47.064;15.422;2023-07-02T23:01:17;4.77;;;2.50;;
21339;SDS011;10828;47.064;15.422;2023-07-02T23:03:45;6.67;;;3.30;;
21339;SDS011;10828;47.064;15.422;2023-07-02T23:06:10;4.67;;;2.43;;
21339;SDS011;10828;47.064;15.422;2023-07-02T23:08:36;6.27;;;2.43;;
21339;SDS011;10828;47.064;15.422;2023-07-02T23:11:02;9.23;;;3.17;;
21339;SDS011;10828;47.064;15.422;2023-07-02T23:13:35;6.37;;;3.07;;
21339;SDS011;10828;47.064;15.422;2023-07-02T23:16:01;6.80;;;2.90;;
21339;SDS011;10828;47.064;15.422;2023-07-02T23:18:27;5.57;;;2.63;;
21339;SDS011;10828;47.064;15.422;2023-07-02T23:20:54;5.33;;;2.60;;
21339;SDS011;10828;47.064;15.422;2023-07-02T23:23:20;6.50;;;2.80;;
21339;SDS011;10828;47.064;15.422;2023-07-02T23:25:47;5.23;;;2.53;;
21339;SDS011;10828;47.064;15.422;2023-07-02T23:28:14;6.43;;;2.93;;
21339;SDS011;10828;47.064;15.422;2023-07-02T23:30:41;6.17;;;2.50;;
21339;SDS011;10828;47.064;15.422;2023-07-02T23:33:07;8.33;;;3.20;;
21339;SDS011;10828;47.064;15.422;2023-07-02T23:35:38;5.97;;;2.87;;
21339;SDS011;10828;47.064;15.422;2023-07-02T23:38:04;6.17;;;2.70;;
21339;SDS011;10828;47.064;15.422;2023-07-02T23:40:39;7.53;;;2.60;;
21339;SDS011;10828;47.064;15.422;2023-07-02T23:43:07;6.30;;;2.70;;
21339;SDS011;10828;47.064;15.422;2023-07-02T23:45:34;6.93;;;2.63;;
21339;SDS011;10828;47.064;15.422;2023-07-02T23:48:04;7.30;;;3.00;;
21339;SDS011;10828;47.064;15.422;2023-07-02T23:50:31;5.90;;;2.80;;
21339;SDS011;10828;47.064;15.422;2023-07-02T23:52:59;9.67;;;2.83;;
21339;SDS011;10828;47.064;15.422;2023-07-02T23:55:25;10.07;;;3.47;;
21339;SDS011;10828;47.064;15.422;2023-07-02T23:57:58;8.27;;;2.53;;
